Time;durP1;ratioP1;P1;durP2;ratioP2;P2;SDS_P1;SDS_P2;PMS_P1;PMS_P2;Temp;Humidity;BMP_temperature;BMP_pressure;BME280_temperature;BME280_humidity;BME280_pressure;Samples;Min_cycle;Max_cycle;Signal;HPM_P1;HPM_P2
2023/07/25 00:01:03;;;;;;;21.52;17.45;;;12.60;99.90;;;;;;5031624;28;20395;-82
2023/07/25 00:03:29;;;;;;;24.45;19.48;;;12.60;99.90;;;;;;5031989;28;20049;-82
2023/07/25 00:05:54;;;;;;;20.52;18.63;;;12.80;99.90;;;;;;5031794;28;20038;-82
2023/07/25 00:08:20;;;;;;;20.98;18.88;;;12.50;99.90;;;;;;5033269;28;20033;-82
2023/07/25 00:10:45;;;;;;;21.55;19.45;;;12.50;99.90;;;;;;5031738;28;20033;-82
2023/07/25 00:13:11;;;;;;;28.52;26.15;;;12.40;99.90;;;;;;5015578;28;20064;-82
2023/07/25 00:15:37;;;;;;;25.60;23.38;;;12.40;99.90;;;;;;5031442;28;20037;-82
2023/07/25 00:18:04;;;;;;;25.42;22.90;;;12.40;99.90;;;;;;5032573;28;20054;-82
2023/07/25 00:20:30;;;;;;;25.20;22.63;;;12.30;99.90;;;;;;5032780;28;20048;-81
2023/07/25 00:22:55;;;;;;;22.83;20.67;;;12.30;99.90;;;;;;5033020;28;20033;-82
2023/07/25 00:25:21;;;;;;;22.08;18.70;;;12.30;99.90;;;;;;5032510;28;20396;-82
2023/07/25 00:27:47;;;;;;;25.10;22.73;;;12.30;99.90;;;;;;5031499;28;20396;-82
2023/07/25 00:30:12;;;;;;;22.95;21.17;;;12.30;99.90;;;;;;5031058;28;20044;-82
2023/07/25 00:32:38;;;;;;;21.15;18.67;;;12.50;99.90;;;;;;5014955;28;20127;-82
2023/07/25 00:35:04;;;;;;;26.00;23.67;;;12.30;99.90;;;;;;5032519;28;20443;-82
2023/07/25 00:37:30;;;;;;;25.13;22.65;;;12.20;99.90;;;;;;5014888;28;20172;-82
2023/07/25 00:39:57;;;;;;;21.50;19.52;;;12.20;99.90;;;;;;5031240;28;20116;-82
2023/07/25 00:42:23;;;;;;;29.05;26.42;;;12.20;99.90;;;;;;5031167;28;20033;-82
2023/07/25 00:44:49;;;;;;;23.92;20.45;;;12.10;99.90;;;;;;5030941;28;20427;-82
2023/07/25 00:47:15;;;;;;;28.75;21.05;;;12.10;99.90;;;;;;5031030;28;20041;-82
2023/07/25 00:49:42;;;;;;;25.80;23.58;;;12.10;99.90;;;;;;5014533;28;20041;-82
2023/07/25 00:52:09;;;;;;;25.38;23.23;;;12.00;99.90;;;;;;5030986;28;20099;-82
2023/07/25 00:54:39;;;;;;;28.55;26.27;;;12.20;99.90;;;;;;5014800;28;20488;-82
2023/07/25 00:57:05;;;;;;;33.38;30.60;;;12.10;99.90;;;;;;5030837;28;20129;-81
2023/07/25 00:59:31;;;;;;;33.10;29.75;;;12.00;99.90;;;;;;5032125;28;20033;-82
2023/07/25 01:01:57;;;;;;;23.35;20.98;;;12.00;99.90;;;;;;5030949;28;20457;-82
2023/07/25 01:04:24;;;;;;;25.60;23.55;;;12.00;99.90;;;;;;5032003;28;20120;-82
2023/07/25 01:06:51;;;;;;;31.73;29.17;;;11.90;99.90;;;;;;5031043;28;20048;-82
2023/07/25 01:09:40;;;;;;;22.90;20.52;;;12.00;99.90;;;;;;5014280;28;20041;-81
2023/07/25 01:12:07;;;;;;;30.90;28.15;;;12.00;99.90;;;;;;5030886;28;20065;-82
2023/07/25 01:14:34;;;;;;;45.03;41.60;;;11.90;99.90;;;;;;5013750;28;20041;-82
2023/07/25 01:17:09;;;;;;;36.40;33.42;;;12.00;99.90;;;;;;5030519;28;20124;-82
2023/07/25 01:19:37;;;;;;;42.92;39.63;;;11.90;99.90;;;;;;5030779;28;20049;-82
2023/07/25 01:22:04;;;;;;;42.10;39.22;;;11.90;99.90;;;;;;5030824;28;20087;-82
2023/07/25 01:24:29;;;;;;;58.28;54.17;;;12.00;99.90;;;;;;5014307;28;20090;-82
2023/07/25 01:26:55;;;;;;;39.20;36.22;;;12.00;99.90;;;;;;5030094;28;20073;-82
2023/07/25 01:29:21;;;;;;;38.33;34.97;;;12.20;99.90;;;;;;5031599;28;20068;-81
2023/07/25 01:31:47;;;;;;;31.52;29.02;;;12.10;99.90;;;;;;5014172;28;20034;-81
2023/07/25 01:34:12;;;;;;;45.97;42.67;;;12.10;99.90;;;;;;5014141;28;20167;-82
2023/07/25 01:36:38;;;;;;;52.33;48.17;;;12.10;99.90;;;;;;5013337;28;20034;-81
2023/07/25 01:39:04;;;;;;;39.80;36.58;;;12.20;99.90;;;;;;5029963;28;20131;-82
2023/07/25 01:41:29;;;;;;;39.90;36.75;;;12.30;99.90;;;;;;5029902;28;20036;-82
2023/07/25 01:43:55;;;;;;;29.08;26.67;;;12.50;99.90;;;;;;5030250;28;20499;-82
2023/07/25 01:46:20;;;;;;;25.55;23.15;;;12.30;99.90;;;;;;5030385;28;20034;-82
2023/07/25 01:48:46;;;;;;;22.58;20.38;;;12.30;99.90;;;;;;5031657;28;20396;-82
2023/07/25 01:51:11;;;;;;;26.60;24.05;;;12.50;99.90;;;;;;5030221;28;20483;-82
2023/07/25 01:53:37;;;;;;;39.65;36.10;;;12.30;99.90;;;;;;5031377;28;20496;-82
2023/07/25 01:56:03;;;;;;;24.58;22.35;;;12.40;99.90;;;;;;5029782;28;20036;-82
2023/07/25 01:58:28;;;;;;;32.53;29.48;;;12.40;99.90;;;;;;5013592;28;20045;-82
2023/07/25 02:01:00;;;;;;;22.65;20.35;;;12.90;99.90;;;;;;5030524;28;20029;-82
2023/07/25 02:03:27;;;;;;;35.80;32.88;;;12.50;99.90;;;;;;5013931;28;20422;-82
2023/07/25 02:05:53;;;;;;;22.63;20.45;;;12.60;99.90;;;;;;5031488;28;20108;-82
2023/07/25 02:08:18;;;;;;;20.67;18.85;;;12.70;99.90;;;;;;5029960;28;20132;-82
2023/07/25 02:10:44;;;;;;;19.77;17.85;;;12.70;99.90;;;;;;5029807;28;20041;-82
2023/07/25 02:13:09;;;;;;;19.55;17.45;;;12.80;99.90;;;;;;5013431;28;20034;-82
2023/07/25 02:15:36;;;;;;;19.92;17.05;;;12.80;99.90;;;;;;5031319;28;20046;-82
2023/07/25 02:18:02;;;;;;;16.38;15.07;;;12.90;99.90;;;;;;5013162;28;20053;-81
2023/07/25 02:20:32;;;;;;;21.08;14.73;;;12.90;99.90;;;;;;5029944;28;20049;-82
2023/07/25 02:22:58;;;;;;;18.60;16.70;;;12.90;99.90;;;;;;5013759;28;20396;-82
2023/07/25 02:25:26;;;;;;;18.75;15.55;;;13.00;99.90;;;;;;5029458;28;20108;-82
2023/07/25 02:27:51;;;;;;;18.52;15.45;;;13.00;99.90;;;;;;5029859;28;20038;-82
2023/07/25 02:30:17;;;;;;;18.00;14.20;;;13.00;99.90;;;;;;5030207;28;20049;-82
2023/07/25 02:32:43;;;;;;;22.15;15.60;;;13.00;99.90;;;;;;5013687;28;20051;-81
2023/07/25 02:35:08;;;;;;;20.33;15.48;;;13.00;99.90;;;;;;5031006;28;20052;-81
2023/07/25 02:37:34;;;;;;;20.48;14.32;;;13.00;99.90;;;;;;5030942;28;20129;-81
2023/07/25 02:39:59;;;;;;;18.58;16.45;;;13.00;99.90;;;;;;5029180;28;20041;-81
2023/07/25 02:42:25;;;;;;;19.05;13.68;;;13.00;99.90;;;;;;5029738;28;20072;-82
2023/07/25 02:44:51;;;;;;;19.23;16.05;;;12.90;99.90;;;;;;5013408;28;20484;-82
2023/07/25 02:47:16;;;;;;;16.70;14.68;;;12.90;99.90;;;;;;5029630;28;20396;-81
2023/07/25 02:49:42;;;;;;;17.00;14.88;;;12.80;99.90;;;;;;5032092;28;20450;-82
2023/07/25 02:52:08;;;;;;;17.23;15.88;;;12.80;99.90;;;;;;5033257;28;20124;-82
2023/07/25 02:54:33;;;;;;;16.90;15.18;;;12.80;99.90;;;;;;5032652;28;20481;-82
2023/07/25 02:56:59;;;;;;;16.35;14.57;;;12.80;99.90;;;;;;5033066;28;20050;-82
2023/07/25 02:59:25;;;;;;;17.73;15.88;;;12.70;99.90;;;;;;5034534;28;20176;-82
2023/07/25 03:01:50;;;;;;;19.75;17.67;;;12.70;99.90;;;;;;5033193;28;20125;-82
2023/07/25 03:04:16;;;;;;;16.88;14.32;;;12.70;99.90;;;;;;5033100;28;20033;-82
2023/07/25 03:06:41;;;;;;;20.58;18.48;;;12.70;99.90;;;;;;5032989;28;20504;-82
2023/07/25 03:09:07;;;;;;;18.88;16.13;;;12.60;99.90;;;;;;5032460;28;20038;-82
2023/07/25 03:11:33;;;;;;;26.52;24.33;;;12.60;99.90;;;;;;5034137;28;20037;-82
2023/07/25 03:13:58;;;;;;;30.45;28.10;;;12.60;99.90;;;;;;5032928;28;20095;-82
2023/07/25 03:16:24;;;;;;;21.55;15.38;;;12.80;99.90;;;;;;5034252;28;20034;-81
2023/07/25 03:18:50;;;;;;;20.05;17.63;;;12.60;99.90;;;;;;5032731;28;20065;-82
2023/07/25 03:21:15;;;;;;;21.50;19.35;;;12.70;99.90;;;;;;5032736;28;20056;-82
2023/07/25 03:23:41;;;;;;;18.60;16.98;;;12.60;99.90;;;;;;5033629;28;20038;-82
2023/07/25 03:26:07;;;;;;;21.88;19.52;;;12.60;99.90;;;;;;5032536;28;20044;-82
2023/07/25 03:28:32;;;;;;;20.52;15.85;;;12.60;99.90;;;;;;5032576;28;20523;-82
2023/07/25 03:30:58;;;;;;;20.17;17.77;;;12.70;99.90;;;;;;5032625;28;20034;-82
2023/07/25 03:33:24;;;;;;;27.02;24.77;;;12.70;99.90;;;;;;5032497;28;20039;-82
2023/07/25 03:35:49;;;;;;;21.05;19.05;;;12.80;99.90;;;;;;5016265;28;20137;-82
2023/07/25 03:38:15;;;;;;;19.33;15.82;;;12.90;99.90;;;;;;5015508;28;20034;-82
2023/07/25 03:40:40;;;;;;;16.63;12.60;;;12.90;99.90;;;;;;5033618;28;20495;-82
2023/07/25 03:43:06;;;;;;;17.63;15.38;;;13.00;99.90;;;;;;5032391;28;20049;-82
2023/07/25 03:45:32;;;;;;;16.25;13.48;;;13.20;99.90;;;;;;5032542;28;20083;-82
2023/07/25 03:47:57;;;;;;;17.40;14.10;;;13.10;99.90;;;;;;5032526;28;20492;-82
2023/07/25 03:50:23;;;;;;;21.63;12.82;;;13.10;99.90;;;;;;5032290;28;20045;-82
2023/07/25 03:52:48;;;;;;;14.43;11.90;;;13.10;99.90;;;;;;5015608;28;20053;-82
2023/07/25 03:55:14;;;;;;;16.45;14.82;;;13.20;99.90;;;;;;5015588;28;20037;-82
2023/07/25 03:57:40;;;;;;;15.60;13.63;;;13.20;99.90;;;;;;5032087;28;20492;-82
2023/07/25 04:00:06;;;;;;;20.35;12.88;;;13.30;99.90;;;;;;5031297;28;20042;-82
2023/07/25 04:02:31;;;;;;;18.08;13.25;;;13.30;99.90;;;;;;5032016;28;20029;-82
2023/07/25 04:04:57;;;;;;;15.13;12.60;;;13.30;99.90;;;;;;5033255;28;20046;-82
2023/07/25 04:07:22;;;;;;;16.55;11.15;;;13.30;99.90;;;;;;5031456;28;20120;-82
2023/07/25 04:09:48;;;;;;;18.42;13.38;;;13.40;99.90;;;;;;5031895;28;20411;-82
2023/07/25 04:12:14;;;;;;;17.60;15.77;;;13.30;99.90;;;;;;5031986;28;20391;-82
2023/07/25 04:14:40;;;;;;;15.85;14.18;;;13.30;99.90;;;;;;5032001;28;20117;-82
2023/07/25 04:17:06;;;;;;;17.08;15.27;;;13.30;99.90;;;;;;5031651;28;20107;-82
2023/07/25 04:19:32;;;;;;;17.98;14.90;;;13.30;99.90;;;;;;5031764;28;20049;-82
2023/07/25 04:21:57;;;;;;;16.13;13.35;;;13.30;99.90;;;;;;5032441;28;20040;-82
2023/07/25 04:24:23;;;;;;;16.00;13.35;;;13.30;99.90;;;;;;5032749;28;20056;-82
2023/07/25 04:26:49;;;;;;;18.20;14.55;;;13.40;99.90;;;;;;5032946;28;20072;-82
2023/07/25 04:29:14;;;;;;;15.18;13.63;;;13.30;99.90;;;;;;5031655;28;20099;-82
2023/07/25 04:31:40;;;;;;;19.48;14.82;;;13.30;99.90;;;;;;5031808;28;20045;-82
2023/07/25 04:34:05;;;;;;;20.88;13.70;;;13.40;99.90;;;;;;5031564;28;20041;-82
2023/07/25 04:36:31;;;;;;;16.42;14.30;;;13.30;99.90;;;;;;5032139;28;20092;-82
2023/07/25 04:38:57;;;;;;;18.45;13.98;;;13.30;99.90;;;;;;5014798;28;20038;-82
2023/07/25 04:41:22;;;;;;;17.55;13.20;;;13.60;99.90;;;;;;5031192;28;20456;-82
2023/07/25 04:43:48;;;;;;;14.38;11.45;;;13.50;99.90;;;;;;5032538;28;20030;-82
2023/07/25 04:46:14;;;;;;;17.92;13.13;;;13.40;99.90;;;;;;5031394;28;20519;-82
2023/07/25 04:48:39;;;;;;;15.85;14.25;;;13.40;99.90;;;;;;5032412;28;20037;-82
2023/07/25 04:51:05;;;;;;;19.13;14.82;;;13.50;99.90;;;;;;5030657;28;20121;-82
2023/07/25 04:53:31;;;;;;;18.50;16.58;;;13.50;99.90;;;;;;5014494;28;20044;-82
2023/07/25 04:55:56;;;;;;;19.08;13.70;;;13.60;99.90;;;;;;5031256;28;20555;-82
2023/07/25 04:58:22;;;;;;;16.80;14.07;;;13.70;99.90;;;;;;5032252;28;20072;-82
2023/07/25 05:00:47;;;;;;;20.40;16.98;;;13.70;99.90;;;;;;5031285;28;20365;-82
2023/07/25 05:03:13;;;;;;;16.92;12.80;;;13.80;99.90;;;;;;5014627;28;20534;-82
2023/07/25 05:05:39;;;;;;;16.98;14.73;;;13.80;99.90;;;;;;5031620;28;20033;-82
2023/07/25 05:08:04;;;;;;;17.23;12.52;;;13.90;99.90;;;;;;5030751;28;20044;-82
2023/07/25 05:10:31;;;;;;;14.32;10.27;;;14.30;99.90;;;;;;5014338;28;20064;-82
2023/07/25 05:12:57;;;;;;;14.55;12.43;;;14.20;99.90;;;;;;5031990;28;20046;-82
2023/07/25 05:15:23;;;;;;;18.77;15.07;;;14.20;99.90;;;;;;5031044;28;20172;-82
2023/07/25 05:17:49;;;;;;;16.63;14.82;;;14.30;99.90;;;;;;5031673;28;20135;-82
2023/07/25 05:20:14;;;;;;;12.10;9.93;;;14.30;99.90;;;;;;5030109;28;20041;-82
2023/07/25 05:22:40;;;;;;;14.10;12.45;;;14.40;99.90;;;;;;5031690;28;20033;-82
2023/07/25 05:25:06;;;;;;;24.35;11.23;;;14.50;99.90;;;;;;5032013;28;20556;-82
2023/07/25 05:27:32;;;;;;;16.63;10.43;;;14.50;99.90;;;;;;5030393;28;20068;-83
2023/07/25 05:29:57;;;;;;;21.63;13.57;;;14.60;99.90;;;;;;5030763;28;20480;-82
2023/07/25 05:32:23;;;;;;;16.25;10.80;;;15.20;99.90;;;;;;5031683;28;20049;-83
2023/07/25 05:34:49;;;;;;;14.48;6.05;;;16.00;99.90;;;;;;5031174;28;20402;-82
2023/07/25 05:37:17;;;;;;;11.65;8.38;;;16.70;99.90;;;;;;5013704;28;20077;-82
2023/07/25 05:39:43;;;;;;;13.85;6.95;;;17.00;99.90;;;;;;5030548;28;20036;-83
2023/07/25 05:42:08;;;;;;;17.85;5.93;;;17.30;99.90;;;;;;5030213;28;20045;-83
2023/07/25 05:44:34;;;;;;;11.95;3.92;;;17.70;99.90;;;;;;5013874;28;20033;-83
2023/07/25 05:47:02;;;;;;;12.20;5.07;;;18.00;99.90;;;;;;5030516;28;20045;-82
2023/07/25 05:49:28;;;;;;;10.38;6.30;;;18.30;99.90;;;;;;5029897;28;20041;-83
2023/07/25 05:51:54;;;;;;;8.82;6.28;;;18.70;99.90;;;;;;5030162;28;20124;-82
2023/07/25 05:54:20;;;;;;;12.80;7.30;;;19.30;99.90;;;;;;5030195;28;20120;-83
2023/07/25 05:56:46;;;;;;;12.82;6.80;;;19.90;99.90;;;;;;5031397;28;20041;-83
2023/07/25 05:59:11;;;;;;;13.32;8.63;;;20.80;99.90;;;;;;5013956;28;20064;-83
2023/07/25 06:01:39;;;;;;;11.00;8.50;;;21.70;99.90;;;;;;5031504;28;20038;-83
2023/07/25 06:04:04;;;;;;;11.25;8.38;;;22.60;99.90;;;;;;5029868;28;20578;-83
2023/07/25 06:06:30;;;;;;;11.77;8.43;;;23.30;99.90;;;;;;5031231;28;20120;-83
2023/07/25 06:08:56;;;;;;;10.05;7.70;;;23.90;99.90;;;;;;5030009;28;20041;-83
2023/07/25 06:11:23;;;;;;;22.92;21.05;;;24.40;99.90;;;;;;5031414;28;20108;-84
2023/07/25 06:13:49;;;;;;;281.90;264.15;;;24.80;99.90;;;;;;5030301;28;20403;-83
2023/07/25 06:16:18;;;;;;;639.67;593.92;;;25.10;99.90;;;;;;5031214;28;20037;-83
2023/07/25 06:18:44;;;;;;;682.45;633.25;;;25.60;99.90;;;;;;5029153;28;20103;-83
2023/07/25 06:21:10;;;;;;;625.95;581.10;;;25.70;99.90;;;;;;5031369;28;20120;-83
2023/07/25 06:23:36;;;;;;;647.42;600.47;;;25.60;99.00;;;;;;5030925;28;20480;-83
2023/07/25 06:26:01;;;;;;;631.40;585.03;;;25.70;98.60;;;;;;5017316;28;20091;-83
2023/07/25 06:28:27;;;;;;;709.60;657.72;;;26.10;99.00;;;;;;5033873;28;20404;-84
2023/07/25 06:30:53;;;;;;;824.33;759.80;;;26.60;98.40;;;;;;5035137;28;20502;-83
2023/07/25 06:33:18;;;;;;;839.83;774.45;;;26.60;97.00;;;;;;5016708;28;20130;-83
2023/07/25 06:35:44;;;;;;;949.78;867.55;;;26.80;98.70;;;;;;5033916;28;20107;-83
2023/07/25 06:38:10;;;;;;;1011.67;916.20;;;26.60;97.10;;;;;;5034962;28;20085;-84
2023/07/25 06:40:35;;;;;;;1044.97;941.58;;;26.60;97.40;;;;;;5033510;28;20037;-84
2023/07/25 06:43:01;;;;;;;1019.90;922.40;;;26.50;97.10;;;;;;5034796;28;20041;-84
2023/07/25 06:45:26;;;;;;;1091.78;977.50;;;26.60;96.20;;;;;;5033552;28;20451;-84
2023/07/25 06:47:52;;;;;;;1268.00;999.90;;;27.10;95.60;;;;;;5033024;28;20044;-84
2023/07/25 06:50:18;;;;;;;1220.45;999.90;;;26.80;95.30;;;;;;5034487;28;20091;-83
2023/07/25 06:52:43;;;;;;;1327.82;999.90;;;26.90;95.60;;;;;;5017031;28;20566;-84
2023/07/25 06:55:09;;;;;;;1313.72;999.90;;;26.80;95.20;;;;;;5033173;28;20052;-83
2023/07/25 06:57:34;;;;;;;1361.78;999.90;;;26.80;95.90;;;;;;5033051;28;20072;-84
2023/07/25 07:00:00;;;;;;;1338.60;999.90;;;26.70;95.10;;;;;;5033313;28;20045;-83
2023/07/25 07:02:26;;;;;;;1412.90;999.90;;;26.90;94.90;;;;;;5033943;28;20038;-83
2023/07/25 07:04:51;;;;;;;1456.70;999.90;;;27.10;95.00;;;;;;5016757;28;20479;-84
2023/07/25 07:07:17;;;;;;;1308.13;999.90;;;27.40;94.60;;;;;;5033005;28;20037;-83
2023/07/25 07:09:43;;;;;;;1463.90;999.90;;;27.10;94.30;;;;;;5033418;28;20454;-84
2023/07/25 07:12:08;;;;;;;1588.38;999.90;;;27.00;94.30;;;;;;5016772;28;20105;-83
2023/07/25 07:14:34;;;;;;;1500.00;999.90;;;27.00;94.60;;;;;;5032894;28;20037;-83
2023/07/25 07:16:59;;;;;;;1493.03;999.90;;;27.30;93.20;;;;;;5033739;28;20045;-83
2023/07/25 07:19:25;;;;;;;1564.05;999.90;;;27.10;93.80;;;;;;5032711;28;20136;-84
2023/07/25 07:21:51;;;;;;;1681.85;999.90;;;27.20;92.20;;;;;;5032898;28;20042;-84
2023/07/25 07:24:16;;;;;;;1464.10;999.90;;;27.10;93.40;;;;;;5032982;28;20036;-83
2023/07/25 07:26:42;;;;;;;1523.05;999.90;;;27.00;92.90;;;;;;5032931;28;20068;-83
2023/07/25 07:29:09;;;;;;;1661.90;999.90;;;27.10;93.20;;;;;;5016184;28;20048;-83
2023/07/25 07:31:35;;;;;;;1548.55;999.90;;;27.20;92.80;;;;;;5033510;28;20038;-84
2023/07/25 07:34:13;;;;;;;1642.45;999.90;;;27.50;92.70;;;;;;5032480;28;20119;-84
2023/07/25 07:36:38;;;;;;;1737.82;999.90;;;27.30;91.30;;;;;;5015096;28;20180;-83
2023/07/25 07:39:04;;;;;;;1762.63;999.90;;;26.80;91.40;;;;;;5033588;28;20492;-84
2023/07/25 07:41:29;;;;;;;1699.82;999.90;;;27.00;92.80;;;;;;5033726;28;20045;-84
2023/07/25 07:43:55;;;;;;;1489.30;999.90;;;27.30;91.50;;;;;;5031903;28;20056;-83
2023/07/25 07:46:21;;;;;;;1764.38;999.90;;;27.80;92.40;;;;;;5032291;28;20129;-84
2023/07/25 07:48:46;;;;;;;1735.30;999.90;;;27.40;91.30;;;;;;5032257;28;20033;-83
2023/07/25 07:51:12;;;;;;;1665.20;999.90;;;27.30;91.80;;;;;;5032333;28;20385;-83
2023/07/25 07:53:38;;;;;;;1752.88;999.90;;;26.90;91.50;;;;;;5033482;28;20033;-84
2023/07/25 07:56:07;;;;;;;1803.63;999.90;;;27.00;92.20;;;;;;5032096;28;20045;-83
2023/07/25 07:58:33;;;;;;;1623.50;999.90;;;27.30;90.50;;;;;;5032803;28;20030;-83
2023/07/25 08:00:58;;;;;;;1897.53;999.90;;;27.20;92.10;;;;;;5032110;28;20403;-83
2023/07/25 08:03:24;;;;;;;1661.43;999.90;;;27.00;91.70;;;;;;5032534;28;20183;-84
2023/07/25 08:05:59;;;;;;;1837.45;999.90;;;27.40;91.90;;;;;;5032107;28;20037;-83
2023/07/25 08:08:24;;;;;;;1725.68;999.90;;;27.40;91.20;;;;;;5031947;28;20096;-83
2023/07/25 08:10:50;;;;;;;1742.68;999.90;;;27.00;91.20;;;;;;5031922;28;20483;-83
2023/07/25 08:13:16;;;;;;;1474.15;999.90;;;26.10;92.00;;;;;;5031334;28;20045;-83
2023/07/25 08:15:41;;;;;;;1434.55;999.90;;;25.10;93.10;;;;;;5031692;28;20068;-83
2023/07/25 08:18:07;;;;;;;1235.70;998.80;;;24.70;92.30;;;;;;5031425;28;20053;-83
2023/07/25 08:20:32;;;;;;;1072.80;960.40;;;23.80;92.70;;;;;;5031782;28;20511;-83
2023/07/25 08:22:58;;;;;;;991.75;899.90;;;23.20;93.90;;;;;;5015402;28;20549;-83
2023/07/25 08:25:24;;;;;;;889.53;815.47;;;22.50;93.40;;;;;;5032815;28;20067;-83
2023/07/25 08:27:50;;;;;;;805.28;742.95;;;21.90;94.00;;;;;;5030963;28;20048;-82
2023/07/25 08:30:15;;;;;;;703.15;651.25;;;21.80;94.50;;;;;;5032658;28;20037;-83
2023/07/25 08:32:41;;;;;;;684.97;634.45;;;22.00;94.80;;;;;;5014866;28;20091;-83
2023/07/25 08:35:07;;;;;;;678.17;629.60;;;22.40;95.40;;;;;;5015145;28;20045;-82
2023/07/25 08:37:32;;;;;;;633.53;588.50;;;22.30;94.00;;;;;;5031234;28;20125;-83
2023/07/25 08:39:59;;;;;;;690.70;639.45;;;22.20;94.50;;;;;;5031403;28;20036;-83
2023/07/25 08:42:25;;;;;;;643.70;597.55;;;22.20;93.90;;;;;;5030751;28;20041;-82
2023/07/25 08:44:54;;;;;;;731.53;676.67;;;22.50;94.30;;;;;;5031096;28;20522;-83
2023/07/25 08:47:27;;;;;;;795.03;732.58;;;23.30;94.60;;;;;;5032340;28;20042;-83
2023/07/25 08:49:55;;;;;;;893.95;819.25;;;24.20;93.90;;;;;;5032427;28;20472;-83
2023/07/25 08:52:25;;;;;;;923.28;843.40;;;24.80;94.60;;;;;;5014583;28;20037;-83
2023/07/25 08:54:52;;;;;;;892.05;817.58;;;24.60;94.10;;;;;;5032253;28;20041;-83
2023/07/25 08:57:21;;;;;;;890.70;816.10;;;23.90;92.90;;;;;;5031635;28;20041;-82
2023/07/25 08:59:50;;;;;;;673.72;625.08;;;22.90;93.10;;;;;;5030951;28;20136;-83
2023/07/25 09:02:16;;;;;;;665.60;617.03;;;22.20;94.50;;;;;;5031195;28;20033;-82
2023/07/25 09:04:45;;;;;;;634.10;588.97;;;22.00;95.30;;;;;;5030918;28;20037;-83
2023/07/25 09:07:11;;;;;;;795.75;733.83;;;22.20;95.60;;;;;;5030732;28;20088;-83
2023/07/25 09:09:36;;;;;;;863.42;793.60;;;22.70;95.50;;;;;;5030774;28;20068;-83
2023/07/25 09:12:02;;;;;;;850.63;783.03;;;22.80;93.70;;;;;;5030444;28;20404;-83
2023/07/25 09:14:28;;;;;;;754.13;697.08;;;22.40;93.70;;;;;;5014176;28;20094;-82
2023/07/25 09:16:54;;;;;;;628.13;583.13;;;22.10;94.60;;;;;;5030725;28;20404;-83
2023/07/25 09:19:20;;;;;;;550.60;513.30;;;21.80;95.00;;;;;;5013922;28;20053;-82
2023/07/25 09:21:56;;;;;;;494.55;462.98;;;21.60;95.10;;;;;;5030555;28;20045;-83
2023/07/25 09:24:22;;;;;;;490.73;459.13;;;21.80;95.80;;;;;;5031778;28;20061;-83
2023/07/25 09:26:49;;;;;;;570.42;531.67;;;22.10;95.90;;;;;;5030157;28;20518;-82
2023/07/25 09:29:16;;;;;;;736.20;681.67;;;22.70;96.10;;;;;;5030463;28;20073;-83
2023/07/25 09:31:44;;;;;;;778.05;718.72;;;23.20;94.70;;;;;;5031904;28;20056;-83
2023/07/25 09:34:20;;;;;;;785.00;724.08;;;23.30;94.10;;;;;;5031590;28;20500;-83
2023/07/25 09:36:47;;;;;;;755.33;698.00;;;23.70;93.50;;;;;;5031458;28;20511;-82
2023/07/25 09:39:14;;;;;;;752.17;696.20;;;23.80;94.70;;;;;;5030582;28;20068;-82
2023/07/25 09:41:41;;;;;;;784.05;724.20;;;23.50;94.30;;;;;;5029755;28;20081;-82
2023/07/25 09:44:06;;;;;;;603.30;560.80;;;23.80;94.40;;;;;;5030463;28;20121;-82
2023/07/25 09:46:32;;;;;;;837.72;771.17;;;24.30;95.70;;;;;;5031666;28;20180;-82
2023/07/25 09:48:58;;;;;;;879.92;806.88;;;24.70;94.10;;;;;;5030521;28;20029;-83
2023/07/25 09:51:24;;;;;;;906.35;829.75;;;24.90;93.40;;;;;;5030161;28;20069;-83
2023/07/25 09:53:51;;;;;;;954.13;869.40;;;24.70;93.40;;;;;;5030382;28;20083;-82
2023/07/25 09:56:16;;;;;;;944.15;860.92;;;24.60;93.90;;;;;;5029668;28;20033;-82
2023/07/25 09:58:42;;;;;;;846.35;778.67;;;23.70;93.40;;;;;;5031139;28;20183;-83
2023/07/25 10:01:09;;;;;;;776.20;717.08;;;23.40;93.90;;;;;;5018040;28;20040;-82
2023/07/25 10:03:35;;;;;;;712.88;660.65;;;23.00;94.90;;;;;;5017911;28;20483;-82
2023/07/25 10:06:04;;;;;;;559.88;521.88;;;22.60;94.90;;;;;;5034053;28;20069;-82
2023/07/25 10:08:30;;;;;;;546.63;510.27;;;22.30;95.40;;;;;;5017644;28;20099;-83
2023/07/25 10:10:56;;;;;;;539.33;503.15;;;22.30;96.60;;;;;;5033438;28;20124;-83
2023/07/25 10:13:23;;;;;;;603.17;561.08;;;22.30;95.30;;;;;;5034051;28;20079;-83
2023/07/25 10:15:50;;;;;;;491.85;459.55;;;22.10;96.40;;;;;;5035438;28;20049;-82
2023/07/25 10:18:24;;;;;;;558.33;519.67;;;21.80;96.20;;;;;;5033660;28;20053;-82
2023/07/25 10:20:52;;;;;;;443.98;416.58;;;21.80;97.00;;;;;;5033839;28;20049;-82
2023/07/25 10:23:18;;;;;;;449.90;421.20;;;21.80;96.80;;;;;;5017296;28;20052;-82
2023/07/25 10:25:43;;;;;;;455.75;425.73;;;21.70;97.10;;;;;;5016760;28;20048;-83
2023/07/25 10:28:11;;;;;;;402.65;376.50;;;21.70;97.70;;;;;;5017186;28;20073;-82
2023/07/25 10:30:47;;;;;;;406.80;381.25;;;21.50;97.50;;;;;;5033816;28;20034;-82
2023/07/25 10:33:13;;;;;;;312.15;293.42;;;21.20;97.30;;;;;;5033542;28;20045;-82
2023/07/25 10:35:39;;;;;;;191.13;180.05;;;20.80;97.80;;;;;;5034946;28;20045;-82
2023/07/25 10:38:14;;;;;;;114.90;108.35;;;20.70;98.70;;;;;;5033188;28;20546;-82
2023/07/25 10:41:08;;;;;;;107.53;101.60;;;20.50;98.40;;;;;;5033472;28;20045;-82
2023/07/25 10:43:46;;;;;;;71.63;67.22;;;20.50;99.90;;;;;;5030667;28;20057;-82
2023/07/25 10:46:14;;;;;;;77.75;73.18;;;20.60;99.90;;;;;;5034882;28;20046;-82
2023/07/25 10:48:48;;;;;;;156.05;146.93;;;20.70;99.80;;;;;;5033350;28;20041;-82
2023/07/25 10:51:17;;;;;;;202.38;190.73;;;20.80;99.10;;;;;;5033666;28;20091;-82
2023/07/25 10:54:09;;;;;;;184.52;174.05;;;21.00;98.10;;;;;;5033074;28;20434;-82
2023/07/25 10:56:38;;;;;;;137.40;129.63;;;21.40;98.90;;;;;;5016920;28;20086;-83
2023/07/25 10:59:10;;;;;;;219.18;206.88;;;21.50;97.40;;;;;;5033114;28;20048;-83
2023/07/25 11:01:47;;;;;;;186.30;175.68;;;21.40;97.30;;;;;;5033286;28;20128;-83
2023/07/25 11:04:20;;;;;;;163.82;154.82;;;21.20;97.00;;;;;;5034285;28;20147;-82
2023/07/25 11:06:47;;;;;;;112.03;105.87;;;21.30;98.00;;;;;;5034532;28;20037;-82
2023/07/25 11:09:13;;;;;;;69.75;65.57;;;21.30;97.60;;;;;;5032453;28;20272;-82
2023/07/25 11:11:46;;;;;;;117.07;110.78;;;21.40;96.50;;;;;;5033191;28;20084;-83
2023/07/25 11:14:13;;;;;;;;;;;21.50;95.00;;;;;;5033345;28;20045;-82
2023/07/25 11:16:40;;;;;;;103.13;97.22;;;21.70;96.20;;;;;;5033088;28;19916;-82
2023/07/25 11:19:07;;;;;;;159.82;150.82;;;21.90;96.80;;;;;;5032717;28;20446;-82
2023/07/25 11:21:37;;;;;;;130.43;123.40;;;21.80;95.30;;;;;;5032304;28;20037;-83
2023/07/25 11:24:04;;;;;;;155.57;146.98;;;21.80;95.80;;;;;;5016267;28;20041;-82
2023/07/25 11:26:30;;;;;;;101.10;95.63;;;21.60;96.40;;;;;;5032764;28;20507;-82
2023/07/25 11:29:08;;;;;;;110.72;104.47;;;21.40;96.50;;;;;;5032696;28;20044;-82
2023/07/25 11:31:36;;;;;;;105.45;99.72;;;21.40;97.10;;;;;;5016354;28;20128;-83
2023/07/25 11:34:16;;;;;;;124.40;117.25;;;21.20;95.90;;;;;;5032634;28;20052;-82
2023/07/25 11:36:43;;;;;;;115.93;108.82;;;21.10;96.60;;;;;;5032157;28;20037;-82
2023/07/25 11:39:10;;;;;;;109.18;103.30;;;21.10;96.40;;;;;;5032747;28;20046;-82
2023/07/25 11:41:37;;;;;;;95.00;89.80;;;20.90;96.90;;;;;;5033738;28;20108;-82
2023/07/25 11:44:10;;;;;;;63.78;59.95;;;21.00;97.50;;;;;;5033543;28;20052;-82
2023/07/25 11:46:42;;;;;;;57.00;53.35;;;21.30;96.70;;;;;;5034131;28;20034;-82
2023/07/25 11:49:10;;;;;;;87.60;82.07;;;21.40;95.50;;;;;;5015973;28;20033;-82
2023/07/25 11:51:36;;;;;;;58.05;54.83;;;21.50;96.30;;;;;;5033077;28;20400;-82
2023/07/25 11:54:03;;;;;;;106.47;100.50;;;21.50;96.40;;;;;;5032494;28;20381;-82
2023/07/25 11:56:29;;;;;;;96.07;90.63;;;21.30;97.20;;;;;;5032053;28;20120;-83
2023/07/25 11:58:55;;;;;;;53.22;50.03;;;21.20;96.80;;;;;;5033296;28;20113;-83
2023/07/25 12:01:31;;;;;;;79.57;75.00;;;21.40;95.80;;;;;;5032141;28;20041;-83
2023/07/25 12:04:00;;;;;;;68.20;64.32;;;21.40;95.30;;;;;;5032093;28;20124;-83
2023/07/25 12:06:30;;;;;;;53.08;49.95;;;21.20;95.30;;;;;;5032842;28;20409;-83
2023/07/25 12:08:56;;;;;;;43.28;40.42;;;21.20;95.90;;;;;;5015458;28;20046;-83
2023/07/25 12:11:22;;;;;;;68.47;64.63;;;21.20;95.40;;;;;;5015597;28;20064;-83
2023/07/25 12:13:56;;;;;;;61.25;57.63;;;21.40;96.70;;;;;;5031754;28;20037;-82
2023/07/25 12:16:30;;;;;;;64.88;61.08;;;21.50;96.50;;;;;;5031849;28;20120;-82